Terminal Aerodrome Forecast
Issued by NWS

Home | Current Version | Previous Version | Text Only | Print | Product List | Glossary On
Versions: 1 2 3 4 5 6 7 8 9 10 11 12 13 14 15 16
041
FTUS46 KHNX 181146
TAFMCE
TAF
KMCE 181146Z 1812/1912 13005KT 2SM BR BKN120
     FM181900 14012G18KT 3SM -RA BR SCT050 OVC080
     FM190000 14021G31KT 2SM RA BR OVC025
     FM191000 13015G23KT 2SM -SHRA BR OVC015=

USA.gov is the U.S. government's official web portal to all federal, state and local government web resources and services.